Time;durP1;ratioP1;P1;durP2;ratioP2;P2;SDS_P1;SDS_P2;PMS_P1;PMS_P2;Temp;Humidity;BMP_temperature;BMP_pressure;BME280_temperature;BME280_humidity;BME280_pressure;Samples;Min_cycle;Max_cycle;Signal;HPM_P1;HPM_P2
2023/07/31 00:00:09;;;;;;;9.03;3.47;;;15.90;99.90;;;;;;5348033;23;656617;-69
2023/07/31 00:02:58;;;;;;;7.30;3.47;;;16.00;99.90;;;;;;5371189;23;656977;-69
2023/07/31 00:05:45;;;;;;;7.67;3.13;;;16.00;99.90;;;;;;5344075;23;657090;-69
2023/07/31 00:08:32;;;;;;;9.40;3.50;;;16.00;99.90;;;;;;5351745;23;656871;-69
2023/07/31 00:11:20;;;;;;;8.57;3.93;;;15.90;99.90;;;;;;5374398;23;656231;-69
2023/07/31 00:14:07;;;;;;;7.23;3.70;;;15.90;99.90;;;;;;5371035;23;656432;-68
2023/07/31 00:16:54;;;;;;;5.13;3.60;;;16.00;99.90;;;;;;5349227;23;656943;-69
2023/07/31 00:19:42;;;;;;;7.97;3.80;;;15.90;99.90;;;;;;5376950;23;656848;-69
2023/07/31 00:22:30;;;;;;;8.93;3.67;;;15.90;99.90;;;;;;5344562;23;658095;-69
2023/07/31 00:25:17;;;;;;;6.83;3.33;;;15.80;99.90;;;;;;5371303;23;656688;-69
2023/07/31 00:28:04;;;;;;;6.90;3.20;;;15.80;99.90;;;;;;5343816;23;657312;-69
2023/07/31 00:30:52;;;;;;;7.00;3.63;;;15.80;99.90;;;;;;5369738;23;656758;-69
2023/07/31 00:33:39;;;;;;;5.40;3.27;;;15.80;99.90;;;;;;5348485;23;656696;-70
2023/07/31 00:36:27;;;;;;;8.90;3.37;;;15.80;99.90;;;;;;5371882;23;657393;-69
2023/07/31 00:39:15;;;;;;;7.77;3.47;;;15.80;99.90;;;;;;5348192;23;657224;-69
2023/07/31 00:42:03;;;;;;;6.70;3.47;;;15.80;99.90;;;;;;5370186;23;656806;-69
2023/07/31 00:44:50;;;;;;;5.60;3.60;;;15.70;99.90;;;;;;5370048;23;657954;-69
2023/07/31 00:47:37;;;;;;;9.57;3.50;;;15.60;99.90;;;;;;5363329;23;656395;-69
2023/07/31 00:50:25;;;;;;;8.73;3.77;;;15.70;99.90;;;;;;5369202;23;657906;-69
2023/07/31 00:53:14;;;;;;;7.60;4.10;;;15.60;99.90;;;;;;5281773;23;656201;-69
2023/07/31 00:56:01;;;;;;;5.83;3.63;;;15.70;99.90;;;;;;5371193;23;656756;-69
2023/07/31 00:58:48;;;;;;;7.30;4.20;;;15.60;99.90;;;;;;5346883;23;656501;-69
2023/07/31 01:01:35;;;;;;;7.23;4.17;;;15.60;99.90;;;;;;5370898;23;657418;-69
2023/07/31 01:04:23;;;;;;;9.40;4.73;;;15.60;99.90;;;;;;5348259;23;656859;-69
2023/07/31 01:07:13;;;;;;;9.30;4.93;;;15.50;99.90;;;;;;5374983;23;657351;-69
2023/07/31 01:10:05;;;;;;;9.47;4.20;;;15.50;99.90;;;;;;5346627;23;658415;-70
2023/07/31 01:12:52;;;;;;;10.77;4.70;;;15.50;99.90;;;;;;5331443;23;656490;-69
2023/07/31 01:15:40;;;;;;;6.80;4.77;;;15.50;99.90;;;;;;5376700;23;657556;-69
2023/07/31 01:18:27;;;;;;;7.47;4.10;;;15.40;99.90;;;;;;5374632;23;656477;-69
2023/07/31 01:21:23;;;;;;;8.77;3.90;;;15.40;99.90;;;;;;5351382;23;656531;-69
2023/07/31 01:24:21;;;;;;;8.77;4.65;;;15.30;99.90;;;;;;5346228;23;657074;-69
2023/07/31 01:27:11;;;;;;;10.47;4.50;;;15.30;99.90;;;;;;5324113;23;657369;-69
2023/07/31 01:30:01;;;;;;;7.70;5.20;;;15.30;99.90;;;;;;5349944;23;657657;-70
2023/07/31 01:32:49;;;;;;;9.17;5.17;;;15.30;99.90;;;;;;5351050;23;656960;-69
2023/07/31 01:35:36;;;;;;;9.30;4.60;;;15.20;99.90;;;;;;5374203;23;657158;-69
2023/07/31 01:38:23;;;;;;;9.43;5.33;;;15.20;99.90;;;;;;5351648;23;656675;-70
2023/07/31 01:41:10;;;;;;;15.50;5.67;;;15.20;99.90;;;;;;5376456;23;656304;-69
2023/07/31 01:43:59;;;;;;;8.50;5.10;;;15.20;99.90;;;;;;5351255;23;658010;-69
2023/07/31 01:46:46;;;;;;;8.83;5.27;;;15.20;99.90;;;;;;5373841;23;656228;-70
2023/07/31 01:49:33;;;;;;;12.50;5.50;;;15.10;99.90;;;;;;5351451;23;656576;-70
2023/07/31 01:52:21;;;;;;;9.70;5.97;;;15.10;99.90;;;;;;5372190;23;658098;-70
2023/07/31 01:55:08;;;;;;;10.33;6.27;;;15.10;99.90;;;;;;5351038;23;656539;-69
2023/07/31 01:57:55;;;;;;;9.27;6.70;;;15.10;99.90;;;;;;5371776;23;658683;-69
2023/07/31 02:00:44;;;;;;;12.07;6.67;;;15.10;99.90;;;;;;5351325;23;656726;-69
2023/07/31 02:03:31;;;;;;;10.97;7.33;;;15.00;99.90;;;;;;5373428;23;658233;-69
2023/07/31 02:06:18;;;;;;;11.23;7.37;;;15.10;99.90;;;;;;5347157;23;657298;-69
2023/07/31 02:09:06;;;;;;;9.87;6.40;;;15.10;99.90;;;;;;5286975;23;658477;-69
2023/07/31 02:11:53;;;;;;;15.90;6.80;;;15.10;99.90;;;;;;5257082;23;656799;-69
2023/07/31 02:14:40;;;;;;;11.37;6.73;;;15.10;99.90;;;;;;5377804;23;658979;-69
2023/07/31 02:17:29;;;;;;;9.43;6.67;;;15.10;99.90;;;;;;5351658;23;657548;-69
2023/07/31 02:20:16;;;;;;;13.33;6.90;;;15.10;99.90;;;;;;5376915;23;656083;-69
2023/07/31 02:23:04;;;;;;;10.97;6.63;;;15.10;99.90;;;;;;5344244;23;657359;-69
2023/07/31 02:25:51;;;;;;;13.87;7.23;;;15.10;99.90;;;;;;5371078;23;658108;-70
2023/07/31 02:28:38;;;;;;;12.97;7.13;;;15.10;99.90;;;;;;5348036;23;657880;-69
2023/07/31 02:31:25;;;;;;;8.77;6.13;;;15.10;99.90;;;;;;5372128;23;659114;-69
2023/07/31 02:34:14;;;;;;;14.73;6.17;;;15.10;99.90;;;;;;5350423;23;657503;-69
2023/07/31 02:37:01;;;;;;;9.03;5.50;;;15.10;99.90;;;;;;5370425;23;658104;-69
2023/07/31 02:39:48;;;;;;;7.70;5.53;;;15.00;99.90;;;;;;5348971;23;657414;-69
2023/07/31 02:42:35;;;;;;;8.40;5.53;;;15.00;99.90;;;;;;5375094;23;656784;-69
2023/07/31 02:45:22;;;;;;;7.97;5.10;;;15.00;99.90;;;;;;5350346;23;656938;-69
2023/07/31 02:48:10;;;;;;;6.37;4.13;;;15.00;99.90;;;;;;5377079;23;656886;-69
2023/07/31 02:50:58;;;;;;;7.00;4.30;;;15.00;99.90;;;;;;5372236;23;656285;-68
2023/07/31 02:53:45;;;;;;;5.23;3.80;;;15.00;99.90;;;;;;5345629;23;657108;-69
2023/07/31 02:56:32;;;;;;;6.97;4.10;;;15.00;99.90;;;;;;5350085;23;656964;-69
2023/07/31 02:59:20;;;;;;;6.40;3.70;;;15.10;99.90;;;;;;5372362;23;657556;-69
2023/07/31 03:02:07;;;;;;;4.30;3.60;;;15.10;99.90;;;;;;5349175;23;656558;-69
2023/07/31 03:04:55;;;;;;;9.47;3.97;;;15.10;99.90;;;;;;5372620;23;657786;-69
2023/07/31 03:07:44;;;;;;;8.07;4.20;;;15.10;99.90;;;;;;5367860;23;656725;-69
2023/07/31 03:10:31;;;;;;;6.43;4.00;;;15.10;99.90;;;;;;5371526;23;657121;-69
2023/07/31 03:13:18;;;;;;;8.30;4.50;;;15.10;99.90;;;;;;5347962;23;656542;-69
2023/07/31 03:16:05;;;;;;;5.83;4.07;;;15.10;99.90;;;;;;5371741;23;657586;-69
2023/07/31 03:18:53;;;;;;;8.27;3.70;;;15.10;99.90;;;;;;5349249;23;656484;-69
2023/07/31 03:21:40;;;;;;;4.90;3.83;;;15.20;99.90;;;;;;5371883;23;657819;-69
2023/07/31 03:24:29;;;;;;;5.93;3.50;;;15.20;99.90;;;;;;5367878;23;656657;-69
2023/07/31 03:27:16;;;;;;;5.70;3.53;;;15.20;99.90;;;;;;5372189;23;657188;-69
2023/07/31 03:30:04;;;;;;;5.30;3.87;;;15.20;99.90;;;;;;5348700;23;656388;-70
2023/07/31 03:32:51;;;;;;;5.63;3.40;;;15.10;99.90;;;;;;5372166;23;656830;-69
2023/07/31 03:35:38;;;;;;;4.67;3.40;;;15.20;99.90;;;;;;5348706;23;656352;-70
2023/07/31 03:38:25;;;;;;;4.37;3.50;;;15.20;99.90;;;;;;5373146;23;657354;-69
2023/07/31 03:41:14;;;;;;;4.20;3.43;;;15.10;99.90;;;;;;5350126;23;656423;-69
2023/07/31 03:44:01;;;;;;;7.53;3.80;;;15.10;99.90;;;;;;5372035;23;656909;-69
2023/07/31 03:46:48;;;;;;;5.37;3.70;;;15.20;99.90;;;;;;5349650;23;656583;-69
2023/07/31 03:49:35;;;;;;;11.67;3.90;;;15.20;99.90;;;;;;5373050;23;657603;-69
2023/07/31 03:52:22;;;;;;;9.00;4.00;;;15.30;99.90;;;;;;5348160;23;657832;-69
2023/07/31 03:55:10;;;;;;;5.43;3.63;;;15.30;99.90;;;;;;5376700;23;656353;-69
2023/07/31 03:58:00;;;;;;;4.57;3.80;;;15.40;99.90;;;;;;5368039;23;656395;-69
2023/07/31 04:00:47;;;;;;;4.63;3.77;;;15.40;99.90;;;;;;5371958;23;656282;-68
2023/07/31 04:03:34;;;;;;;6.93;3.80;;;15.40;99.90;;;;;;5349072;23;657194;-69
2023/07/31 04:06:22;;;;;;;6.10;3.70;;;15.50;99.90;;;;;;5371863;23;656824;-68
2023/07/31 04:09:09;;;;;;;5.37;3.67;;;15.50;99.90;;;;;;5348891;23;656654;-69
2023/07/31 04:11:56;;;;;;;5.67;4.27;;;15.50;99.90;;;;;;5301466;23;656390;-69
2023/07/31 04:14:45;;;;;;;5.03;4.00;;;15.50;99.90;;;;;;5179913;23;657021;-68
2023/07/31 04:17:32;;;;;;;7.03;4.13;;;15.50;99.90;;;;;;5232813;23;656666;-68
2023/07/31 04:20:20;;;;;;;5.80;3.93;;;15.40;99.90;;;;;;5330266;23;656585;-69
2023/07/31 04:23:07;;;;;;;6.07;4.30;;;15.50;99.90;;;;;;5371339;23;656552;-69
2023/07/31 04:25:55;;;;;;;4.83;4.33;;;15.40;99.90;;;;;;5375895;23;656552;-69
2023/07/31 04:28:42;;;;;;;8.77;5.10;;;15.30;99.90;;;;;;5371676;23;656281;-69
2023/07/31 04:31:30;;;;;;;6.63;4.40;;;15.40;99.90;;;;;;5349135;23;656731;-69
2023/07/31 04:34:17;;;;;;;7.60;4.65;;;15.50;99.90;;;;;;5349081;23;656522;-69
2023/07/31 04:37:05;;;;;;;6.90;4.70;;;15.50;99.90;;;;;;5376666;23;657116;-69
2023/07/31 04:39:52;;;;;;;7.33;4.43;;;15.60;99.90;;;;;;5368746;23;656285;-69
2023/07/31 04:42:40;;;;;;;8.20;4.37;;;15.60;99.90;;;;;;5376167;23;656855;-69
2023/07/31 04:45:27;;;;;;;6.53;4.43;;;15.70;99.90;;;;;;5372496;23;657403;-69
2023/07/31 04:48:15;;;;;;;5.40;4.10;;;15.70;99.90;;;;;;5349166;23;657037;-69
2023/07/31 04:51:03;;;;;;;5.97;4.32;;;15.60;99.90;;;;;;5348335;23;656462;-69
2023/07/31 04:53:50;;;;;;;6.10;4.27;;;15.60;99.90;;;;;;5372038;23;657299;-69
2023/07/31 04:56:37;;;;;;;9.27;4.73;;;15.80;99.90;;;;;;5363218;23;656590;-69
2023/07/31 04:59:25;;;;;;;6.43;4.43;;;15.80;99.90;;;;;;5376286;23;657225;-69
2023/07/31 05:02:13;;;;;;;9.90;4.30;;;15.80;99.90;;;;;;5371349;23;657027;-70
2023/07/31 05:05:01;;;;;;;4.80;4.00;;;15.90;99.90;;;;;;5343381;23;657554;-69
2023/07/31 05:07:49;;;;;;;5.82;4.15;;;15.90;99.90;;;;;;5347834;23;657779;-69
2023/07/31 05:10:36;;;;;;;5.27;4.23;;;15.90;99.90;;;;;;5371702;23;657562;-69
2023/07/31 05:13:23;;;;;;;6.07;3.90;;;15.90;99.90;;;;;;5349411;23;656856;-69
2023/07/31 05:16:10;;;;;;;6.33;3.90;;;16.10;99.90;;;;;;5372495;23;657569;-69
2023/07/31 05:18:57;;;;;;;6.60;3.53;;;16.20;99.90;;;;;;5347124;23;656451;-69
2023/07/31 05:21:46;;;;;;;7.17;3.27;;;16.30;99.90;;;;;;5375856;23;656808;-69
2023/07/31 05:24:33;;;;;;;5.95;3.80;;;16.40;99.90;;;;;;5345023;23;656714;-69
2023/07/31 05:27:20;;;;;;;6.43;3.50;;;16.30;99.90;;;;;;5371561;23;657282;-69
2023/07/31 05:30:09;;;;;;;8.40;3.60;;;16.30;99.90;;;;;;5347349;23;656924;-69
2023/07/31 05:32:56;;;;;;;7.43;3.70;;;16.50;99.90;;;;;;5371310;23;657527;-69
2023/07/31 05:35:44;;;;;;;5.37;3.00;;;16.40;99.90;;;;;;5348160;23;657220;-69
2023/07/31 05:38:33;;;;;;;9.93;3.57;;;16.40;99.90;;;;;;5371283;23;658068;-70
2023/07/31 05:41:20;;;;;;;10.63;3.53;;;16.50;99.90;;;;;;5344678;23;657140;-69
2023/07/31 05:44:07;;;;;;;6.33;3.40;;;16.70;99.90;;;;;;5352744;23;657962;-69
2023/07/31 05:46:54;;;;;;;10.73;3.70;;;16.80;99.90;;;;;;5376363;23;657046;-69
2023/07/31 05:49:42;;;;;;;5.50;3.10;;;17.00;99.90;;;;;;5369976;23;657580;-69
2023/07/31 05:52:29;;;;;;;8.37;3.10;;;17.20;99.90;;;;;;5348177;23;657039;-69
2023/07/31 05:55:18;;;;;;;6.80;3.40;;;17.50;99.90;;;;;;5372412;23;656630;-69
2023/07/31 05:58:05;;;;;;;6.50;3.03;;;17.70;99.90;;;;;;5345041;23;657459;-69
2023/07/31 06:00:52;;;;;;;5.40;2.90;;;17.80;99.90;;;;;;5349952;23;656527;-69
2023/07/31 06:03:40;;;;;;;8.23;3.00;;;17.90;99.90;;;;;;5373626;23;657477;-69
2023/07/31 06:06:27;;;;;;;4.67;3.00;;;18.10;99.90;;;;;;5371889;23;656525;-72
2023/07/31 06:09:15;;;;;;;8.90;3.20;;;18.20;99.90;;;;;;5375062;23;657807;-73
2023/07/31 06:12:04;;;;;;;4.13;2.70;;;17.60;99.90;;;;;;5373865;23;656288;-73
2023/07/31 06:14:51;;;;;;;6.70;2.77;;;17.70;99.90;;;;;;5345046;23;657335;-73
2023/07/31 06:17:39;;;;;;;5.57;2.47;;;17.70;99.90;;;;;;5352503;23;656622;-73
2023/07/31 06:20:26;;;;;;;6.77;2.53;;;17.90;99.90;;;;;;5374995;23;657577;-73
2023/07/31 06:23:13;;;;;;;4.27;2.47;;;17.90;99.90;;;;;;5352431;23;656921;-73
2023/07/31 06:26:00;;;;;;;6.30;2.73;;;17.70;99.90;;;;;;5379724;23;657090;-72
2023/07/31 06:28:49;;;;;;;5.43;2.73;;;17.70;99.90;;;;;;5355908;23;656864;-72
2023/07/31 06:31:36;;;;;;;11.00;2.90;;;17.80;99.90;;;;;;5374969;23;656965;-73
2023/07/31 06:34:23;;;;;;;9.83;2.80;;;17.80;99.90;;;;;;5346806;23;657994;-72
2023/07/31 06:37:10;;;;;;;4.63;2.60;;;17.90;99.90;;;;;;5375998;23;657745;-73
2023/07/31 06:39:58;;;;;;;8.23;2.90;;;18.00;99.90;;;;;;5351734;23;656747;-73
2023/07/31 06:42:45;;;;;;;6.23;2.77;;;18.00;99.90;;;;;;5380136;23;657287;-73
2023/07/31 06:45:34;;;;;;;7.23;2.80;;;18.00;99.90;;;;;;5373244;23;656833;-72
2023/07/31 06:48:21;;;;;;;14.33;3.57;;;18.10;99.90;;;;;;5374541;23;657084;-73
2023/07/31 06:51:08;;;;;;;6.20;2.93;;;18.00;99.90;;;;;;5348772;23;657650;-73
2023/07/31 06:53:56;;;;;;;5.33;3.00;;;17.60;99.90;;;;;;5374657;23;657629;-73
2023/07/31 06:56:43;;;;;;;6.67;3.20;;;17.80;99.90;;;;;;5351966;23;656707;-73
2023/07/31 06:59:30;;;;;;;9.03;3.17;;;17.70;99.90;;;;;;5379114;23;657623;-73
2023/07/31 07:02:19;;;;;;;11.57;3.30;;;17.80;99.90;;;;;;5355040;23;656481;-73
2023/07/31 07:05:07;;;;;;;12.33;3.60;;;17.90;99.90;;;;;;5372103;23;657843;-73
2023/07/31 07:07:54;;;;;;;5.80;3.00;;;18.00;99.90;;;;;;5349638;23;657907;-72
2023/07/31 07:10:41;;;;;;;6.23;2.90;;;18.10;99.90;;;;;;5374581;23;656230;-73
2023/07/31 07:13:28;;;;;;;9.87;3.70;;;18.30;99.90;;;;;;5351746;23;656531;-73
2023/07/31 07:16:15;;;;;;;11.30;3.90;;;18.30;99.90;;;;;;5374709;23;657044;-72
2023/07/31 07:19:04;;;;;;;9.03;4.33;;;18.30;99.90;;;;;;5351484;23;657801;-73
2023/07/31 07:21:52;;;;;;;7.27;3.60;;;18.80;99.90;;;;;;5374166;23;657406;-73
2023/07/31 07:24:39;;;;;;;5.90;3.47;;;18.70;99.90;;;;;;5351289;23;656685;-73
2023/07/31 07:27:26;;;;;;;6.83;3.60;;;19.00;99.90;;;;;;5374459;23;657085;-73
2023/07/31 07:30:14;;;;;;;7.83;4.40;;;19.10;99.90;;;;;;5350474;23;657471;-73
2023/07/31 07:33:01;;;;;;;7.90;3.60;;;19.30;99.90;;;;;;5373905;23;657440;-73
2023/07/31 07:35:49;;;;;;;8.17;3.20;;;19.40;99.90;;;;;;5351060;23;656740;-73
2023/07/31 07:38:39;;;;;;;6.33;3.10;;;18.50;99.90;;;;;;5374218;23;656047;-73
2023/07/31 07:41:26;;;;;;;6.47;3.17;;;18.80;99.90;;;;;;5343297;23;656910;-73
2023/07/31 07:44:13;;;;;;;7.93;3.40;;;19.20;99.90;;;;;;5352632;23;656382;-72
2023/07/31 07:47:01;;;;;;;10.53;3.83;;;19.40;99.90;;;;;;5376375;23;657581;-72
2023/07/31 07:49:48;;;;;;;6.83;3.00;;;19.60;99.90;;;;;;5349993;23;657600;-72
2023/07/31 07:52:36;;;;;;;6.33;3.20;;;19.40;99.90;;;;;;5373764;23;657491;-72
2023/07/31 07:55:23;;;;;;;6.80;3.50;;;19.30;99.90;;;;;;5351433;23;656664;-73
2023/07/31 07:58:11;;;;;;;6.63;3.20;;;19.60;99.90;;;;;;5379435;23;657588;-73
2023/07/31 08:00:58;;;;;;;8.77;3.40;;;19.60;99.90;;;;;;5351167;23;656537;-73
2023/07/31 08:03:46;;;;;;;7.13;2.80;;;19.10;99.90;;;;;;5374089;23;656888;-73
2023/07/31 08:06:33;;;;;;;4.97;2.80;;;19.50;99.90;;;;;;5351353;23;657392;-73
2023/07/31 08:09:21;;;;;;;6.00;2.53;;;19.60;99.90;;;;;;5378971;23;657979;-73
2023/07/31 08:12:09;;;;;;;7.33;2.90;;;20.10;99.90;;;;;;5345735;23;656903;-73
2023/07/31 08:14:57;;;;;;;10.40;2.60;;;20.50;99.90;;;;;;5377822;23;656571;-73
2023/07/31 08:17:44;;;;;;;6.20;2.50;;;20.70;99.90;;;;;;5349250;23;657767;-73
2023/07/31 08:20:31;;;;;;;6.47;2.40;;;21.10;99.90;;;;;;5374333;23;656501;-73
2023/07/31 08:23:18;;;;;;;10.30;3.07;;;21.10;99.90;;;;;;5350777;23;657839;-73
2023/07/31 08:26:07;;;;;;;10.63;2.63;;;21.40;99.90;;;;;;5376724;23;657744;-73
2023/07/31 08:28:54;;;;;;;9.53;3.00;;;21.60;99.90;;;;;;5350516;23;657756;-72
2023/07/31 08:31:41;;;;;;;6.37;2.63;;;20.90;99.90;;;;;;5373033;23;656512;-73
2023/07/31 08:34:29;;;;;;;7.23;2.60;;;21.10;99.90;;;;;;5352180;23;657004;-72
2023/07/31 08:37:16;;;;;;;9.27;2.43;;;21.00;99.90;;;;;;5374649;23;656603;-72
2023/07/31 08:40:05;;;;;;;6.17;2.00;;;21.00;99.90;;;;;;5350247;23;657093;-72
2023/07/31 08:42:56;;;;;;;7.90;2.13;;;20.80;99.90;;;;;;5362233;23;656394;-73
2023/07/31 08:45:43;;;;;;;6.40;1.90;;;20.70;99.90;;;;;;5350063;23;658153;-73
2023/07/31 08:48:32;;;;;;;9.13;2.30;;;21.00;99.90;;;;;;5371514;23;656550;-73
2023/07/31 08:51:19;;;;;;;5.67;2.00;;;21.40;99.90;;;;;;5345678;23;657747;-73
2023/07/31 08:54:06;;;;;;;4.30;2.10;;;21.80;99.90;;;;;;5373382;23;656719;-73
2023/07/31 08:56:53;;;;;;;5.70;2.13;;;21.70;99.90;;;;;;5351568;23;656791;-73
2023/07/31 08:59:42;;;;;;;9.03;2.60;;;21.60;99.90;;;;;;5373707;23;657227;-72
2023/07/31 09:02:32;;;;;;;5.97;2.20;;;21.50;99.90;;;;;;5346458;23;657560;-72
2023/07/31 09:05:19;;;;;;;4.10;2.23;;;22.00;99.90;;;;;;5345657;23;657282;-72
2023/07/31 09:08:06;;;;;;;5.10;1.90;;;22.40;99.90;;;;;;5373811;23;657677;-73
2023/07/31 09:10:55;;;;;;;5.67;1.80;;;22.60;99.90;;;;;;5345662;23;656830;-72
2023/07/31 09:13:42;;;;;;;5.03;1.90;;;22.60;99.90;;;;;;5356706;23;656632;-73
2023/07/31 09:16:31;;;;;;;6.20;2.23;;;22.70;99.90;;;;;;5373524;23;657427;-72
2023/07/31 09:19:28;;;;;;;4.77;1.73;;;23.00;99.90;;;;;;5346274;23;656287;-73
2023/07/31 09:22:15;;;;;;;7.37;1.97;;;22.60;99.90;;;;;;5316611;23;657070;-72
2023/07/31 09:25:15;;;;;;;5.43;1.73;;;22.10;99.90;;;;;;5368002;23;656562;-72
2023/07/31 09:28:02;;;;;;;4.63;1.60;;;21.70;99.90;;;;;;5345767;23;656445;-72
2023/07/31 09:30:50;;;;;;;5.13;1.80;;;21.60;99.90;;;;;;5351123;23;656687;-72
2023/07/31 09:33:54;;;;;;;5.00;1.90;;;22.20;99.90;;;;;;5352001;23;656498;-72
2023/07/31 09:36:42;;;;;;;6.40;1.83;;;22.80;99.90;;;;;;5347259;23;656856;-72
2023/07/31 09:39:30;;;;;;;7.27;2.07;;;22.70;99.90;;;;;;5352565;23;657793;-72
2023/07/31 09:42:26;;;;;;;7.80;2.00;;;22.80;99.90;;;;;;5352463;23;656276;-73
2023/07/31 09:45:14;;;;;;;3.60;1.57;;;22.10;99.90;;;;;;5320697;23;656747;-72
2023/07/31 09:48:02;;;;;;;5.00;1.90;;;21.90;99.90;;;;;;5375061;23;657092;-73
2023/07/31 09:50:51;;;;;;;4.97;2.00;;;21.60;99.90;;;;;;5346283;23;657368;-73
2023/07/31 09:53:38;;;;;;;5.80;2.20;;;22.20;99.90;;;;;;5351794;23;656880;-73
2023/07/31 09:56:25;;;;;;;7.43;2.23;;;22.70;99.90;;;;;;5375439;23;656998;-72
2023/07/31 09:59:13;;;;;;;7.60;2.20;;;22.90;99.90;;;;;;5357277;23;657084;-72
2023/07/31 10:02:00;;;;;;;3.80;1.90;;;22.20;99.90;;;;;;5378039;23;657363;-72
2023/07/31 10:04:48;;;;;;;5.93;2.13;;;22.60;99.90;;;;;;5351442;23;656832;-72
2023/07/31 10:07:38;;;;;;;3.88;1.80;;;23.00;99.90;;;;;;5378182;23;657491;-72
2023/07/31 10:10:25;;;;;;;8.23;2.30;;;23.00;99.90;;;;;;5351255;23;657101;-72
2023/07/31 10:13:13;;;;;;;5.03;2.13;;;22.70;99.90;;;;;;5355321;23;656451;-73
2023/07/31 10:16:01;;;;;;;8.20;2.37;;;22.00;99.90;;;;;;5377921;23;657159;-72
2023/07/31 10:18:48;;;;;;;6.60;2.13;;;21.80;99.90;;;;;;5351597;23;656900;-73
2023/07/31 10:21:35;;;;;;;7.33;2.03;;;21.40;99.90;;;;;;5374027;23;658393;-72
2023/07/31 10:24:24;;;;;;;4.70;2.23;;;21.10;99.90;;;;;;5351752;23;656946;-72
2023/07/31 10:27:11;;;;;;;4.83;2.00;;;21.50;99.90;;;;;;5375087;23;656030;-72
2023/07/31 10:29:59;;;;;;;5.53;1.83;;;21.90;99.90;;;;;;5351213;23;656604;-72
2023/07/31 10:32:46;;;;;;;3.83;1.50;;;21.50;99.90;;;;;;5374135;23;657494;-72
2023/07/31 10:35:33;;;;;;;6.67;2.10;;;22.10;99.90;;;;;;5351210;23;657162;-72
2023/07/31 10:38:20;;;;;;;3.45;1.85;;;22.30;99.90;;;;;;5376439;23;656019;-72
2023/07/31 10:41:10;;;;;;;5.63;2.00;;;22.70;99.90;;;;;;5350933;23;656750;-72
2023/07/31 10:43:59;;;;;;;4.10;2.07;;;23.60;99.90;;;;;;5351478;23;656388;-72
2023/07/31 10:46:46;;;;;;;5.18;2.08;;;23.10;96.20;;;;;;5375514;23;657723;-72
2023/07/31 10:49:34;;;;;;;8.80;1.97;;;22.80;96.90;;;;;;5351475;23;656743;-72
2023/07/31 10:52:23;;;;;;;5.75;1.85;;;23.20;99.90;;;;;;5374979;23;657034;-72
2023/07/31 10:55:24;;;;;;;7.15;2.20;;;23.80;90.10;;;;;;5346896;23;657636;-72
2023/07/31 10:58:13;;;;;;;4.97;1.90;;;23.20;90.20;;;;;;5345853;23;657223;-72
2023/07/31 11:01:02;;;;;;;5.73;2.17;;;23.00;96.30;;;;;;5346875;23;657917;-72
2023/07/31 11:03:52;;;;;;;5.43;2.05;;;23.00;99.90;;;;;;5351905;23;656740;-72
2023/07/31 11:10:21;;;;;;;3.47;1.60;;;23.80;99.50;;;;;;5350803;23;656271;-72
2023/07/31 11:13:08;;;;;;;5.97;1.80;;;22.80;91.00;;;;;;5350971;23;657314;-72
2023/07/31 11:15:57;;;;;;;8.00;1.90;;;22.20;96.00;;;;;;5373804;23;657472;-72
2023/07/31 11:18:45;;;;;;;4.90;1.83;;;22.00;99.90;;;;;;5347442;23;657612;-72
2023/07/31 11:21:32;;;;;;;4.70;2.37;;;21.70;99.90;;;;;;5356795;23;656587;-72
2023/07/31 11:24:20;;;;;;;4.67;1.90;;;22.20;99.90;;;;;;5378787;23;656687;-72
2023/07/31 11:27:08;;;;;;;7.45;2.20;;;22.90;99.90;;;;;;5379495;23;656443;-72
2023/07/31 11:30:01;;;;;;;4.37;2.00;;;23.60;99.90;;;;;;5346585;23;657724;-72
2023/07/31 11:32:50;;;;;;;9.52;2.15;;;24.00;96.90;;;;;;5317939;23;656866;-72
2023/07/31 11:35:43;;;;;;;3.20;1.83;;;24.20;90.90;;;;;;5350827;23;656710;-72
2023/07/31 11:38:31;;;;;;;10.57;1.75;;;24.30;95.70;;;;;;5346488;23;657160;-72
2023/07/31 11:41:18;;;;;;;7.03;2.28;;;24.10;90.10;;;;;;5349782;23;657904;-73
2023/07/31 11:44:05;;;;;;;5.73;1.80;;;23.40;92.10;;;;;;5374185;23;656585;-72
2023/07/31 11:46:53;;;;;;;5.00;1.90;;;23.40;93.00;;;;;;5351071;23;656303;-72
2023/07/31 11:49:41;;;;;;;4.83;1.77;;;22.60;93.80;;;;;;5374073;23;657425;-73
2023/07/31 11:52:29;;;;;;;3.40;1.85;;;23.40;88.00;;;;;;5351409;23;656830;-72
2023/07/31 11:55:16;;;;;;;5.73;1.60;;;23.20;84.50;;;;;;5375362;23;657098;-72
2023/07/31 11:58:03;;;;;;;5.23;1.60;;;23.30;78.30;;;;;;5350211;23;656480;-72
2023/07/31 12:00:50;;;;;;;6.47;1.80;;;23.60;82.80;;;;;;5377001;23;656626;-72
2023/07/31 12:03:37;;;;;;;7.15;1.77;;;23.70;86.00;;;;;;5352478;23;657138;-72
2023/07/31 12:06:35;;;;;;;6.50;1.95;;;23.70;86.40;;;;;;5374848;23;657774;-72
2023/07/31 12:09:23;;;;;;;3.42;1.65;;;24.30;82.50;;;;;;5333010;23;656285;-72
2023/07/31 12:12:10;;;;;;;2.53;1.60;;;24.60;82.70;;;;;;5374170;23;657065;-72
2023/07/31 12:14:57;;;;;;;4.78;1.80;;;24.40;79.40;;;;;;5352503;23;656884;-72
2023/07/31 12:17:48;;;;;;;4.95;2.00;;;24.00;67.80;;;;;;5379954;23;657310;-71
2023/07/31 12:20:35;;;;;;;5.65;1.80;;;24.50;74.80;;;;;;5347244;23;657649;-72
2023/07/31 12:23:27;;;;;;;6.05;2.03;;;24.60;74.90;;;;;;5352288;23;656341;-72
2023/07/31 12:26:16;;;;;;;5.18;1.75;;;24.80;76.70;;;;;;5346946;23;657206;-72
2023/07/31 12:29:03;;;;;;;9.52;2.35;;;24.80;75.80;;;;;;5351970;23;656553;-72
2023/07/31 12:31:50;;;;;;;3.65;2.08;;;25.10;70.80;;;;;;5374076;23;657817;-73
2023/07/31 12:34:43;;;;;;;4.40;2.20;;;25.10;70.40;;;;;;5363870;23;656575;-73
2023/07/31 12:37:32;;;;;;;4.80;2.15;;;25.00;69.60;;;;;;5347092;23;657527;-73
2023/07/31 12:40:20;;;;;;;4.55;2.17;;;25.20;71.70;;;;;;5352192;23;657177;-73
2023/07/31 12:43:08;;;;;;;5.13;2.00;;;24.70;65.60;;;;;;5350616;23;657293;-72
2023/07/31 12:45:55;;;;;;;4.05;2.00;;;24.50;68.50;;;;;;5373479;23;657555;-73
2023/07/31 12:48:43;;;;;;;4.88;2.08;;;24.10;73.40;;;;;;5350633;23;656456;-73
2023/07/31 12:51:30;;;;;;;4.55;2.20;;;24.80;76.70;;;;;;5373121;23;657883;-73
2023/07/31 12:54:17;;;;;;;4.13;1.90;;;25.30;66.70;;;;;;5370244;23;656914;-73
2023/07/31 12:57:06;;;;;;;5.68;1.85;;;24.50;67.40;;;;;;5379395;23;656974;-73
2023/07/31 12:59:53;;;;;;;4.90;2.10;;;23.80;67.00;;;;;;5351657;23;657236;-73
2023/07/31 13:02:41;;;;;;;4.75;1.90;;;23.40;74.50;;;;;;5377554;23;657727;-73
2023/07/31 13:05:28;;;;;;;3.70;1.88;;;23.60;68.90;;;;;;5350009;23;656364;-73
2023/07/31 13:08:17;;;;;;;4.80;2.00;;;23.50;72.50;;;;;;5374001;23;657326;-73
2023/07/31 13:11:04;;;;;;;3.78;1.80;;;23.30;70.60;;;;;;5345217;23;657262;-73
2023/07/31 13:13:53;;;;;;;7.03;2.30;;;23.50;72.00;;;;;;5374652;23;656694;-73
2023/07/31 13:16:40;;;;;;;5.72;1.95;;;23.60;75.80;;;;;;5345383;23;657209;-73
2023/07/31 13:19:27;;;;;;;12.13;2.55;;;24.10;81.00;;;;;;5354304;23;656558;-73
2023/07/31 13:22:15;;;;;;;4.95;1.80;;;24.40;67.90;;;;;;5376811;23;658111;-72
2023/07/31 13:25:02;;;;;;;2.88;1.77;;;25.40;68.70;;;;;;5378129;23;657183;-73
2023/07/31 13:27:50;;;;;;;4.53;1.58;;;24.50;63.50;;;;;;5347242;23;657130;-72
2023/07/31 13:30:38;;;;;;;6.00;1.70;;;24.60;68.70;;;;;;5372899;23;656883;-72
2023/07/31 13:33:25;;;;;;;8.20;2.08;;;25.60;68.10;;;;;;5344660;23;656861;-72
2023/07/31 13:36:13;;;;;;;2.28;1.33;;;25.60;60.20;;;;;;5349972;23;656673;-73
2023/07/31 13:39:01;;;;;;;4.45;1.70;;;24.90;61.50;;;;;;5358070;23;656645;-73
2023/07/31 13:41:48;;;;;;;4.32;1.90;;;24.40;63.30;;;;;;5326648;23;656144;-73
2023/07/31 13:44:35;;;;;;;8.00;1.95;;;24.40;68.50;;;;;;5353787;23;657635;-73
2023/07/31 13:47:24;;;;;;;9.10;2.03;;;24.30;69.40;;;;;;5326720;23;657750;-73
2023/07/31 13:50:11;;;;;;;4.82;1.90;;;25.00;64.60;;;;;;5348373;23;656646;-72
2023/07/31 13:52:58;;;;;;;8.43;2.00;;;25.50;67.80;;;;;;5327038;23;656924;-72
2023/07/31 13:55:46;;;;;;;3.67;1.70;;;26.30;69.90;;;;;;5349507;23;657413;-73
2023/07/31 13:58:34;;;;;;;4.70;1.75;;;26.40;60.50;;;;;;5326502;23;656422;-73
2023/07/31 14:01:21;;;;;;;5.63;1.73;;;25.30;62.20;;;;;;5348749;23;656630;-73
2023/07/31 14:04:09;;;;;;;5.88;1.92;;;24.90;66.30;;;;;;5326996;23;656888;-72
2023/07/31 14:06:57;;;;;;;5.20;2.17;;;24.90;65.80;;;;;;5349218;23;657508;-72
2023/07/31 14:09:44;;;;;;;6.22;2.22;;;24.90;69.10;;;;;;5326448;23;656629;-72
2023/07/31 14:12:31;;;;;;;5.53;1.70;;;25.00;68.30;;;;;;5348449;23;656701;-72
2023/07/31 14:15:18;;;;;;;10.98;2.10;;;25.20;67.90;;;;;;5326772;23;656485;-73
2023/07/31 14:18:06;;;;;;;6.35;1.88;;;24.70;69.60;;;;;;5353351;23;658472;-73
2023/07/31 14:20:54;;;;;;;3.15;1.70;;;24.80;63.20;;;;;;5328169;23;657545;-72
2023/07/31 14:23:42;;;;;;;4.10;1.77;;;24.80;67.20;;;;;;5351107;23;657043;-73